sensor_id;sensor_type;location;lat;lon;timestamp;P1;durP1;ratioP1;P2;durP2;ratioP2
26656;SDS011;14279;50.010;8.260;2023-05-10T00:00:07;3.13;;;1.00;;
26656;SDS011;14279;50.010;8.260;2023-05-10T00:02:34;0.80;;;0.60;;
26656;SDS011;14279;50.010;8.260;2023-05-10T00:04:59;2.70;;;0.70;;
26656;SDS011;14279;50.010;8.260;2023-05-10T00:07:24;6.73;;;1.00;;
26656;SDS011;14279;50.010;8.260;2023-05-10T00:09:50;0.60;;;0.60;;
26656;SDS011;14279;50.010;8.260;2023-05-10T00:12:15;1.43;;;0.70;;
26656;SDS011;14279;50.010;8.260;2023-05-10T00:14:40;0.70;;;0.70;;
26656;SDS011;14279;50.010;8.260;2023-05-10T00:17:05;1.13;;;0.67;;
26656;SDS011;14279;50.010;8.260;2023-05-10T00:19:30;0.70;;;0.70;;
26656;SDS011;14279;50.010;8.260;2023-05-10T00:21:56;0.73;;;0.73;;
26656;SDS011;14279;50.010;8.260;2023-05-10T00:24:21;1.10;;;0.60;;
26656;SDS011;14279;50.010;8.260;2023-05-10T00:26:46;1.90;;;0.80;;
26656;SDS011;14279;50.010;8.260;2023-05-10T00:29:11;0.60;;;0.60;;
26656;SDS011;14279;50.010;8.260;2023-05-10T00:31:37;2.00;;;0.70;;
26656;SDS011;14279;50.010;8.260;2023-05-10T00:34:02;2.70;;;0.93;;
26656;SDS011;14279;50.010;8.260;2023-05-10T00:36:27;2.23;;;0.70;;
26656;SDS011;14279;50.010;8.260;2023-05-10T00:38:52;1.00;;;0.80;;
26656;SDS011;14279;50.010;8.260;2023-05-10T00:41:18;2.93;;;0.70;;
26656;SDS011;14279;50.010;8.260;2023-05-10T00:43:43;1.40;;;0.70;;
26656;SDS011;14279;50.010;8.260;2023-05-10T00:46:08;0.70;;;0.70;;
26656;SDS011;14279;50.010;8.260;2023-05-10T00:48:33;2.80;;;0.80;;
26656;SDS011;14279;50.010;8.260;2023-05-10T00:51:00;2.30;;;0.63;;
26656;SDS011;14279;50.010;8.260;2023-05-10T00:53:26;2.60;;;0.70;;
26656;SDS011;14279;50.010;8.260;2023-05-10T00:55:52;0.93;;;0.67;;
26656;SDS011;14279;50.010;8.260;2023-05-10T00:58:17;1.60;;;0.80;;
26656;SDS011;14279;50.010;8.260;2023-05-10T01:00:42;0.90;;;0.70;;
26656;SDS011;14279;50.010;8.260;2023-05-10T01:03:09;3.70;;;0.63;;
26656;SDS011;14279;50.010;8.260;2023-05-10T01:05:35;0.60;;;0.60;;
26656;SDS011;14279;50.010;8.260;2023-05-10T01:08:01;3.30;;;0.63;;
26656;SDS011;14279;50.010;8.260;2023-05-10T01:10:27;1.13;;;0.70;;
26656;SDS011;14279;50.010;8.260;2023-05-10T01:12:52;0.93;;;0.93;;
26656;SDS011;14279;50.010;8.260;2023-05-10T01:15:18;0.70;;;0.60;;
26656;SDS011;14279;50.010;8.260;2023-05-10T01:17:45;3.37;;;0.83;;
26656;SDS011;14279;50.010;8.260;2023-05-10T01:20:12;1.17;;;0.80;;
26656;SDS011;14279;50.010;8.260;2023-05-10T01:23:18;2.03;;;0.90;;
26656;SDS011;14279;50.010;8.260;2023-05-10T01:25:31;0.80;;;0.70;;
26656;SDS011;14279;50.010;8.260;2023-05-10T01:28:39;0.60;;;0.60;;
26656;SDS011;14279;50.010;8.260;2023-05-10T01:34:27;0.60;;;0.60;;
26656;SDS011;14279;50.010;8.260;2023-05-10T01:37:02;1.07;;;0.60;;
26656;SDS011;14279;50.010;8.260;2023-05-10T01:39:55;0.93;;;0.73;;
26656;SDS011;14279;50.010;8.260;2023-05-10T01:42:26;0.97;;;0.93;;
26656;SDS011;14279;50.010;8.260;2023-05-10T01:45:00;0.63;;;0.60;;
26656;SDS011;14279;50.010;8.260;2023-05-10T01:47:35;6.20;;;0.67;;
26656;SDS011;14279;50.010;8.260;2023-05-10T01:50:06;9.07;;;0.80;;
26656;SDS011;14279;50.010;8.260;2023-05-10T01:52:42;2.43;;;0.60;;
26656;SDS011;14279;50.010;8.260;2023-05-10T01:55:13;3.43;;;0.80;;
26656;SDS011;14279;50.010;8.260;2023-05-10T01:57:42;0.80;;;0.80;;
26656;SDS011;14279;50.010;8.260;2023-05-10T02:00:09;1.60;;;0.90;;
26656;SDS011;14279;50.010;8.260;2023-05-10T02:02:37;1.80;;;0.80;;
26656;SDS011;14279;50.010;8.260;2023-05-10T02:05:07;0.83;;;0.80;;
26656;SDS011;14279;50.010;8.260;2023-05-10T02:07:34;0.60;;;0.60;;
26656;SDS011;14279;50.010;8.260;2023-05-10T02:10:02;6.83;;;1.00;;
26656;SDS011;14279;50.010;8.260;2023-05-10T02:12:29;0.97;;;0.70;;
26656;SDS011;14279;50.010;8.260;2023-05-10T02:14:56;3.33;;;0.87;;
26656;SDS011;14279;50.010;8.260;2023-05-10T02:17:24;11.43;;;1.00;;
26656;SDS011;14279;50.010;8.260;2023-05-10T02:19:50;1.80;;;0.83;;
26656;SDS011;14279;50.010;8.260;2023-05-10T02:22:17;0.80;;;0.70;;
26656;SDS011;14279;50.010;8.260;2023-05-10T02:24:44;1.33;;;0.90;;
26656;SDS011;14279;50.010;8.260;2023-05-10T02:27:11;2.83;;;0.93;;
26656;SDS011;14279;50.010;8.260;2023-05-10T02:29:38;0.70;;;0.70;;
26656;SDS011;14279;50.010;8.260;2023-05-10T02:32:04;2.30;;;0.77;;
26656;SDS011;14279;50.010;8.260;2023-05-10T02:34:31;0.70;;;0.70;;
26656;SDS011;14279;50.010;8.260;2023-05-10T02:36:57;2.87;;;0.93;;
26656;SDS011;14279;50.010;8.260;2023-05-10T02:39:23;0.80;;;0.80;;
26656;SDS011;14279;50.010;8.260;2023-05-10T02:41:50;1.67;;;0.80;;
26656;SDS011;14279;50.010;8.260;2023-05-10T02:44:20;1.33;;;0.90;;
26656;SDS011;14279;50.010;8.260;2023-05-10T02:46:48;5.73;;;0.80;;
26656;SDS011;14279;50.010;8.260;2023-05-10T02:49:13;0.80;;;0.80;;
26656;SDS011;14279;50.010;8.260;2023-05-10T02:51:44;2.47;;;1.00;;
26656;SDS011;14279;50.010;8.260;2023-05-10T02:54:18;4.63;;;1.23;;
26656;SDS011;14279;50.010;8.260;2023-05-10T02:56:50;1.20;;;0.80;;
26656;SDS011;14279;50.010;8.260;2023-05-10T02:59:18;1.47;;;0.90;;
26656;SDS011;14279;50.010;8.260;2023-05-10T03:01:44;0.90;;;0.90;;
26656;SDS011;14279;50.010;8.260;2023-05-10T03:04:09;2.13;;;1.30;;
26656;SDS011;14279;50.010;8.260;2023-05-10T03:06:34;1.33;;;1.30;;
26656;SDS011;14279;50.010;8.260;2023-05-10T03:08:59;3.03;;;1.00;;
26656;SDS011;14279;50.010;8.260;2023-05-10T03:11:39;3.33;;;1.30;;
26656;SDS011;14279;50.010;8.260;2023-05-10T03:16:46;1.03;;;0.93;;
26656;SDS011;14279;50.010;8.260;2023-05-10T03:19:23;1.70;;;1.43;;
26656;SDS011;14279;50.010;8.260;2023-05-10T03:21:52;6.13;;;1.10;;
26656;SDS011;14279;50.010;8.260;2023-05-10T03:24:20;1.70;;;0.90;;
26656;SDS011;14279;50.010;8.260;2023-05-10T03:26:48;7.50;;;0.90;;
26656;SDS011;14279;50.010;8.260;2023-05-10T03:29:14;0.90;;;0.90;;
26656;SDS011;14279;50.010;8.260;2023-05-10T03:31:40;5.97;;;1.00;;
26656;SDS011;14279;50.010;8.260;2023-05-10T03:34:06;2.93;;;1.10;;
26656;SDS011;14279;50.010;8.260;2023-05-10T03:36:31;5.27;;;1.00;;
26656;SDS011;14279;50.010;8.260;2023-05-10T03:38:57;3.20;;;1.10;;
26656;SDS011;14279;50.010;8.260;2023-05-10T03:41:22;1.20;;;1.10;;
26656;SDS011;14279;50.010;8.260;2023-05-10T03:43:47;3.07;;;1.30;;
26656;SDS011;14279;50.010;8.260;2023-05-10T03:46:12;2.80;;;1.30;;
26656;SDS011;14279;50.010;8.260;2023-05-10T03:48:38;1.37;;;1.27;;
26656;SDS011;14279;50.010;8.260;2023-05-10T03:51:03;1.40;;;1.30;;
26656;SDS011;14279;50.010;8.260;2023-05-10T03:53:28;1.27;;;1.10;;
26656;SDS011;14279;50.010;8.260;2023-05-10T03:55:53;1.20;;;1.20;;
26656;SDS011;14279;50.010;8.260;2023-05-10T03:58:19;1.57;;;1.47;;
26656;SDS011;14279;50.010;8.260;2023-05-10T04:00:44;1.43;;;1.20;;
26656;SDS011;14279;50.010;8.260;2023-05-10T04:03:10;2.60;;;1.20;;
26656;SDS011;14279;50.010;8.260;2023-05-10T04:05:36;1.03;;;1.03;;
26656;SDS011;14279;50.010;8.260;2023-05-10T04:08:02;1.77;;;1.20;;
26656;SDS011;14279;50.010;8.260;2023-05-10T04:10:28;1.63;;;1.17;;
26656;SDS011;14279;50.010;8.260;2023-05-10T04:12:53;2.87;;;1.20;;
26656;SDS011;14279;50.010;8.260;2023-05-10T04:15:19;1.33;;;1.23;;
26656;SDS011;14279;50.010;8.260;2023-05-10T04:17:44;1.90;;;1.13;;
26656;SDS011;14279;50.010;8.260;2023-05-10T04:20:09;3.43;;;1.30;;
26656;SDS011;14279;50.010;8.260;2023-05-10T04:22:35;3.20;;;1.37;;
26656;SDS011;14279;50.010;8.260;2023-05-10T04:25:00;2.30;;;1.40;;
26656;SDS011;14279;50.010;8.260;2023-05-10T04:27:26;1.67;;;1.40;;
26656;SDS011;14279;50.010;8.260;2023-05-10T04:29:51;3.20;;;1.40;;
26656;SDS011;14279;50.010;8.260;2023-05-10T04:32:16;2.03;;;1.40;;
26656;SDS011;14279;50.010;8.260;2023-05-10T04:34:42;4.77;;;1.43;;
26656;SDS011;14279;50.010;8.260;2023-05-10T04:37:07;6.30;;;1.47;;
26656;SDS011;14279;50.010;8.260;2023-05-10T04:39:33;5.23;;;1.53;;
26656;SDS011;14279;50.010;8.260;2023-05-10T04:41:58;2.60;;;1.70;;
26656;SDS011;14279;50.010;8.260;2023-05-10T04:44:23;2.20;;;1.50;;
26656;SDS011;14279;50.010;8.260;2023-05-10T04:46:48;8.07;;;1.83;;
26656;SDS011;14279;50.010;8.260;2023-05-10T04:49:14;3.73;;;1.40;;
26656;SDS011;14279;50.010;8.260;2023-05-10T04:51:39;2.30;;;1.63;;
26656;SDS011;14279;50.010;8.260;2023-05-10T04:54:04;5.47;;;2.13;;
26656;SDS011;14279;50.010;8.260;2023-05-10T04:56:29;4.50;;;1.67;;
26656;SDS011;14279;50.010;8.260;2023-05-10T04:58:55;2.40;;;1.73;;
26656;SDS011;14279;50.010;8.260;2023-05-10T05:01:20;2.43;;;1.90;;
26656;SDS011;14279;50.010;8.260;2023-05-10T05:03:45;2.23;;;2.00;;
26656;SDS011;14279;50.010;8.260;2023-05-10T05:06:10;4.13;;;2.07;;
26656;SDS011;14279;50.010;8.260;2023-05-10T05:08:36;3.13;;;1.80;;
26656;SDS011;14279;50.010;8.260;2023-05-10T05:11:01;3.90;;;1.77;;
26656;SDS011;14279;50.010;8.260;2023-05-10T05:13:26;3.20;;;2.30;;
26656;SDS011;14279;50.010;8.260;2023-05-10T05:15:52;5.60;;;1.77;;
26656;SDS011;14279;50.010;8.260;2023-05-10T05:18:17;2.40;;;1.73;;
26656;SDS011;14279;50.010;8.260;2023-05-10T05:20:42;7.00;;;2.30;;
26656;SDS011;14279;50.010;8.260;2023-05-10T05:23:07;6.20;;;2.20;;
26656;SDS011;14279;50.010;8.260;2023-05-10T05:25:33;2.00;;;1.83;;
26656;SDS011;14279;50.010;8.260;2023-05-10T05:27:58;4.50;;;2.10;;
26656;SDS011;14279;50.010;8.260;2023-05-10T05:30:23;5.57;;;2.30;;
26656;SDS011;14279;50.010;8.260;2023-05-10T05:32:48;3.03;;;2.50;;
26656;SDS011;14279;50.010;8.260;2023-05-10T05:35:14;7.10;;;2.30;;
26656;SDS011;14279;50.010;8.260;2023-05-10T05:37:39;2.70;;;2.10;;
26656;SDS011;14279;50.010;8.260;2023-05-10T05:40:05;2.10;;;1.80;;
26656;SDS011;14279;50.010;8.260;2023-05-10T05:42:31;2.00;;;1.90;;
26656;SDS011;14279;50.010;8.260;2023-05-10T05:44:56;7.50;;;2.30;;
26656;SDS011;14279;50.010;8.260;2023-05-10T05:47:22;6.50;;;2.20;;
26656;SDS011;14279;50.010;8.260;2023-05-10T05:49:47;5.33;;;2.10;;
26656;SDS011;14279;50.010;8.260;2023-05-10T05:52:13;2.47;;;2.27;;
26656;SDS011;14279;50.010;8.260;2023-05-10T05:54:38;4.77;;;2.37;;
26656;SDS011;14279;50.010;8.260;2023-05-10T05:57:04;2.43;;;2.10;;
26656;SDS011;14279;50.010;8.260;2023-05-10T05:59:29;2.90;;;2.00;;
26656;SDS011;14279;50.010;8.260;2023-05-10T06:01:54;2.40;;;1.97;;
26656;SDS011;14279;50.010;8.260;2023-05-10T06:04:20;4.93;;;1.90;;
26656;SDS011;14279;50.010;8.260;2023-05-10T06:06:45;4.23;;;2.50;;
26656;SDS011;14279;50.010;8.260;2023-05-10T06:09:10;3.23;;;2.27;;
26656;SDS011;14279;50.010;8.260;2023-05-10T06:11:36;6.03;;;2.33;;
26656;SDS011;14279;50.010;8.260;2023-05-10T06:14:02;4.90;;;2.50;;
26656;SDS011;14279;50.010;8.260;2023-05-10T06:16:29;4.70;;;2.33;;
26656;SDS011;14279;50.010;8.260;2023-05-10T06:18:55;15.20;;;2.30;;
26656;SDS011;14279;50.010;8.260;2023-05-10T06:21:20;4.70;;;2.33;;
26656;SDS011;14279;50.010;8.260;2023-05-10T06:23:45;4.17;;;2.10;;
26656;SDS011;14279;50.010;8.260;2023-05-10T06:26:11;5.80;;;2.13;;
26656;SDS011;14279;50.010;8.260;2023-05-10T06:28:36;4.33;;;1.97;;
26656;SDS011;14279;50.010;8.260;2023-05-10T06:31:04;3.03;;;1.80;;
26656;SDS011;14279;50.010;8.260;2023-05-10T06:33:29;6.90;;;2.00;;
26656;SDS011;14279;50.010;8.260;2023-05-10T06:35:55;9.90;;;1.77;;
26656;SDS011;14279;50.010;8.260;2023-05-10T06:38:20;2.70;;;2.03;;
26656;SDS011;14279;50.010;8.260;2023-05-10T06:40:46;2.57;;;1.60;;
26656;SDS011;14279;50.010;8.260;2023-05-10T06:43:11;5.23;;;2.17;;
26656;SDS011;14279;50.010;8.260;2023-05-10T06:45:36;5.97;;;1.90;;
26656;SDS011;14279;50.010;8.260;2023-05-10T06:48:02;5.67;;;1.83;;
26656;SDS011;14279;50.010;8.260;2023-05-10T06:50:27;3.13;;;1.67;;
26656;SDS011;14279;50.010;8.260;2023-05-10T06:52:52;6.73;;;2.00;;
26656;SDS011;14279;50.010;8.260;2023-05-10T06:55:18;3.23;;;1.70;;
26656;SDS011;14279;50.010;8.260;2023-05-10T06:57:43;5.17;;;2.27;;
26656;SDS011;14279;50.010;8.260;2023-05-10T07:00:08;2.47;;;1.97;;
26656;SDS011;14279;50.010;8.260;2023-05-10T07:02:35;3.20;;;1.73;;
26656;SDS011;14279;50.010;8.260;2023-05-10T07:05:00;3.97;;;1.80;;
26656;SDS011;14279;50.010;8.260;2023-05-10T07:07:25;6.10;;;2.10;;
26656;SDS011;14279;50.010;8.260;2023-05-10T07:09:51;3.67;;;2.00;;
26656;SDS011;14279;50.010;8.260;2023-05-10T07:12:16;4.40;;;2.13;;
26656;SDS011;14279;50.010;8.260;2023-05-10T07:14:42;6.03;;;1.70;;
26656;SDS011;14279;50.010;8.260;2023-05-10T07:17:07;6.87;;;2.20;;
26656;SDS011;14279;50.010;8.260;2023-05-10T07:19:33;6.83;;;2.07;;
26656;SDS011;14279;50.010;8.260;2023-05-10T07:21:58;15.90;;;1.80;;
26656;SDS011;14279;50.010;8.260;2023-05-10T07:24:23;3.13;;;2.10;;
26656;SDS011;14279;50.010;8.260;2023-05-10T07:26:49;4.53;;;2.00;;
26656;SDS011;14279;50.010;8.260;2023-05-10T07:29:14;6.30;;;1.73;;
26656;SDS011;14279;50.010;8.260;2023-05-10T07:31:39;4.70;;;2.33;;
26656;SDS011;14279;50.010;8.260;2023-05-10T07:34:06;2.03;;;1.73;;
26656;SDS011;14279;50.010;8.260;2023-05-10T07:36:32;2.90;;;2.17;;
26656;SDS011;14279;50.010;8.260;2023-05-10T07:38:57;3.47;;;1.57;;
26656;SDS011;14279;50.010;8.260;2023-05-10T07:41:23;5.63;;;1.80;;
26656;SDS011;14279;50.010;8.260;2023-05-10T07:43:48;4.47;;;1.87;;
26656;SDS011;14279;50.010;8.260;2023-05-10T07:46:13;5.60;;;1.60;;
26656;SDS011;14279;50.010;8.260;2023-05-10T07:48:38;2.77;;;1.80;;
26656;SDS011;14279;50.010;8.260;2023-05-10T07:51:04;3.03;;;1.87;;
26656;SDS011;14279;50.010;8.260;2023-05-10T07:53:29;4.43;;;1.93;;
26656;SDS011;14279;50.010;8.260;2023-05-10T07:55:57;5.93;;;1.97;;
26656;SDS011;14279;50.010;8.260;2023-05-10T07:58:23;4.17;;;1.80;;
26656;SDS011;14279;50.010;8.260;2023-05-10T08:00:49;5.33;;;2.07;;
26656;SDS011;14279;50.010;8.260;2023-05-10T08:03:14;3.20;;;1.50;;
26656;SDS011;14279;50.010;8.260;2023-05-10T08:05:40;3.60;;;1.87;;
26656;SDS011;14279;50.010;8.260;2023-05-10T08:08:05;3.40;;;1.73;;
26656;SDS011;14279;50.010;8.260;2023-05-10T08:10:31;4.30;;;1.80;;
26656;SDS011;14279;50.010;8.260;2023-05-10T08:12:56;5.10;;;2.13;;
26656;SDS011;14279;50.010;8.260;2023-05-10T08:15:23;4.40;;;2.17;;
26656;SDS011;14279;50.010;8.260;2023-05-10T08:17:49;2.70;;;2.00;;
26656;SDS011;14279;50.010;8.260;2023-05-10T08:20:14;2.30;;;1.57;;
26656;SDS011;14279;50.010;8.260;2023-05-10T08:22:41;3.20;;;1.83;;
26656;SDS011;14279;50.010;8.260;2023-05-10T08:25:07;9.10;;;1.93;;
26656;SDS011;14279;50.010;8.260;2023-05-10T08:27:32;3.73;;;2.00;;
26656;SDS011;14279;50.010;8.260;2023-05-10T08:29:57;3.23;;;1.90;;
26656;SDS011;14279;50.010;8.260;2023-05-10T08:32:23;3.63;;;1.83;;
26656;SDS011;14279;50.010;8.260;2023-05-10T08:34:48;3.87;;;1.77;;
26656;SDS011;14279;50.010;8.260;2023-05-10T08:37:16;8.87;;;1.70;;
26656;SDS011;14279;50.010;8.260;2023-05-10T08:39:41;7.23;;;2.13;;
26656;SDS011;14279;50.010;8.260;2023-05-10T08:42:07;7.10;;;1.73;;
26656;SDS011;14279;50.010;8.260;2023-05-10T08:44:34;5.20;;;1.90;;
26656;SDS011;14279;50.010;8.260;2023-05-10T08:47:04;3.57;;;1.93;;
26656;SDS011;14279;50.010;8.260;2023-05-10T08:49:31;4.07;;;1.83;;
26656;SDS011;14279;50.010;8.260;2023-05-10T08:51:57;3.97;;;1.80;;
26656;SDS011;14279;50.010;8.260;2023-05-10T08:54:26;4.50;;;1.90;;
26656;SDS011;14279;50.010;8.260;2023-05-10T08:56:51;3.13;;;1.00;;
26656;SDS011;14279;50.010;8.260;2023-05-10T08:59:16;3.87;;;1.70;;
26656;SDS011;14279;50.010;8.260;2023-05-10T09:01:42;1.87;;;1.67;;
26656;SDS011;14279;50.010;8.260;2023-05-10T09:04:10;1.63;;;1.20;;
26656;SDS011;14279;50.010;8.260;2023-05-10T09:06:36;12.60;;;2.43;;
26656;SDS011;14279;50.010;8.260;2023-05-10T09:09:02;4.53;;;1.37;;
26656;SDS011;14279;50.010;8.260;2023-05-10T09:11:28;2.47;;;1.67;;
26656;SDS011;14279;50.010;8.260;2023-05-10T09:13:54;3.80;;;1.80;;
26656;SDS011;14279;50.010;8.260;2023-05-10T09:16:20;3.53;;;1.77;;
26656;SDS011;14279;50.010;8.260;2023-05-10T09:18:46;1.70;;;1.30;;
26656;SDS011;14279;50.010;8.260;2023-05-10T09:21:11;2.70;;;1.60;;
26656;SDS011;14279;50.010;8.260;2023-05-10T09:23:37;3.43;;;1.53;;
26656;SDS011;14279;50.010;8.260;2023-05-10T09:26:02;3.00;;;1.63;;
26656;SDS011;14279;50.010;8.260;2023-05-10T09:28:31;3.43;;;1.30;;
26656;SDS011;14279;50.010;8.260;2023-05-10T09:31:14;1.43;;;1.30;;
26656;SDS011;14279;50.010;8.260;2023-05-10T09:33:46;1.27;;;1.10;;
26656;SDS011;14279;50.010;8.260;2023-05-10T09:36:13;3.10;;;1.63;;
26656;SDS011;14279;50.010;8.260;2023-05-10T09:38:45;2.90;;;1.50;;
26656;SDS011;14279;50.010;8.260;2023-05-10T09:41:18;4.80;;;1.40;;
26656;SDS011;14279;50.010;8.260;2023-05-10T09:43:45;1.63;;;1.53;;
26656;SDS011;14279;50.010;8.260;2023-05-10T09:46:10;1.50;;;1.40;;
26656;SDS011;14279;50.010;8.260;2023-05-10T09:48:43;3.80;;;1.60;;
26656;SDS011;14279;50.010;8.260;2023-05-10T09:51:19;3.00;;;1.67;;
26656;SDS011;14279;50.010;8.260;2023-05-10T09:53:45;2.70;;;1.40;;
26656;SDS011;14279;50.010;8.260;2023-05-10T09:56:11;1.57;;;1.47;;
26656;SDS011;14279;50.010;8.260;2023-05-10T09:58:36;5.30;;;1.53;;
26656;SDS011;14279;50.010;8.260;2023-05-10T10:01:05;2.43;;;1.23;;
26656;SDS011;14279;50.010;8.260;2023-05-10T10:03:40;1.67;;;1.20;;
26656;SDS011;14279;50.010;8.260;2023-05-10T10:06:07;1.17;;;1.00;;
26656;SDS011;14279;50.010;8.260;2023-05-10T10:08:33;6.17;;;1.07;;
26656;SDS011;14279;50.010;8.260;2023-05-10T10:10:59;1.40;;;1.00;;
26656;SDS011;14279;50.010;8.260;2023-05-10T10:13:24;2.50;;;1.00;;
26656;SDS011;14279;50.010;8.260;2023-05-10T10:15:50;5.10;;;1.00;;
26656;SDS011;14279;50.010;8.260;2023-05-10T10:18:17;2.50;;;0.90;;
26656;SDS011;14279;50.010;8.260;2023-05-10T10:20:42;0.83;;;0.83;;
26656;SDS011;14279;50.010;8.260;2023-05-10T10:23:07;1.03;;;0.70;;
26656;SDS011;14279;50.010;8.260;2023-05-10T10:25:33;4.97;;;0.70;;
26656;SDS011;14279;50.010;8.260;2023-05-10T10:31:02;0.60;;;0.60;;
26656;SDS011;14279;50.010;8.260;2023-05-10T10:33:51;2.00;;;0.70;;
26656;SDS011;14279;50.010;8.260;2023-05-10T10:36:22;4.03;;;0.60;;
26656;SDS011;14279;50.010;8.260;2023-05-10T10:41:29;1.00;;;0.90;;
26656;SDS011;14279;50.010;8.260;2023-05-10T10:47:06;1.50;;;0.73;;
26656;SDS011;14279;50.010;8.260;2023-05-10T10:49:52;2.10;;;0.77;;
26656;SDS011;14279;50.010;8.260;2023-05-10T10:52:32;7.50;;;0.90;;
26656;SDS011;14279;50.010;8.260;2023-05-10T11:02:57;0.80;;;0.73;;
26656;SDS011;14279;50.010;8.260;2023-05-10T11:05:43;0.80;;;0.80;;
26656;SDS011;14279;50.010;8.260;2023-05-10T11:10:40;1.40;;;0.93;;
26656;SDS011;14279;50.010;8.260;2023-05-10T11:13:14;0.93;;;0.70;;
26656;SDS011;14279;50.010;8.260;2023-05-10T11:15:39;3.70;;;0.80;;
26656;SDS011;14279;50.010;8.260;2023-05-10T11:18:19;0.73;;;0.73;;
26656;SDS011;14279;50.010;8.260;2023-05-10T11:20:54;7.90;;;0.90;;
26656;SDS011;14279;50.010;8.260;2023-05-10T11:23:22;0.80;;;0.80;;
26656;SDS011;14279;50.010;8.260;2023-05-10T11:25:48;0.70;;;0.70;;
26656;SDS011;14279;50.010;8.260;2023-05-10T11:28:14;1.10;;;0.73;;
26656;SDS011;14279;50.010;8.260;2023-05-10T11:30:42;1.60;;;0.80;;
26656;SDS011;14279;50.010;8.260;2023-05-10T11:33:09;7.30;;;1.20;;
26656;SDS011;14279;50.010;8.260;2023-05-10T11:35:38;1.13;;;0.90;;
26656;SDS011;14279;50.010;8.260;2023-05-10T11:38:05;0.90;;;0.60;;
26656;SDS011;14279;50.010;8.260;2023-05-10T11:40:31;1.17;;;0.70;;
26656;SDS011;14279;50.010;8.260;2023-05-10T11:42:56;2.37;;;0.97;;
26656;SDS011;14279;50.010;8.260;2023-05-10T11:45:23;1.90;;;0.80;;
26656;SDS011;14279;50.010;8.260;2023-05-10T11:47:49;0.80;;;0.80;;
26656;SDS011;14279;50.010;8.260;2023-05-10T11:50:14;0.87;;;0.60;;
26656;SDS011;14279;50.010;8.260;2023-05-10T11:52:40;5.50;;;1.40;;
26656;SDS011;14279;50.010;8.260;2023-05-10T11:55:05;1.23;;;0.80;;
26656;SDS011;14279;50.010;8.260;2023-05-10T11:57:31;0.70;;;0.70;;
26656;SDS011;14279;50.010;8.260;2023-05-10T11:59:56;3.47;;;0.90;;
26656;SDS011;14279;50.010;8.260;2023-05-10T12:02:22;2.37;;;0.90;;
26656;SDS011;14279;50.010;8.260;2023-05-10T12:04:47;1.17;;;0.80;;
26656;SDS011;14279;50.010;8.260;2023-05-10T12:07:13;0.60;;;0.60;;
26656;SDS011;14279;50.010;8.260;2023-05-10T12:10:01;1.20;;;0.63;;
26656;SDS011;14279;50.010;8.260;2023-05-10T12:12:34;3.47;;;0.90;;
26656;SDS011;14279;50.010;8.260;2023-05-10T12:15:04;2.30;;;1.00;;
26656;SDS011;14279;50.010;8.260;2023-05-10T12:17:31;6.13;;;1.20;;
26656;SDS011;14279;50.010;8.260;2023-05-10T12:20:12;1.80;;;0.80;;
26656;SDS011;14279;50.010;8.260;2023-05-10T12:22:46;2.03;;;0.90;;
26656;SDS011;14279;50.010;8.260;2023-05-10T12:25:12;2.00;;;0.73;;
26656;SDS011;14279;50.010;8.260;2023-05-10T12:27:37;0.63;;;0.63;;
26656;SDS011;14279;50.010;8.260;2023-05-10T12:30:03;1.00;;;0.80;;
26656;SDS011;14279;50.010;8.260;2023-05-10T12:32:38;5.60;;;0.70;;
26656;SDS011;14279;50.010;8.260;2023-05-10T12:35:07;6.47;;;0.80;;
26656;SDS011;14279;50.010;8.260;2023-05-10T12:37:33;2.30;;;1.00;;
26656;SDS011;14279;50.010;8.260;2023-05-10T12:40:00;1.57;;;0.80;;
26656;SDS011;14279;50.010;8.260;2023-05-10T12:42:27;2.50;;;1.00;;
26656;SDS011;14279;50.010;8.260;2023-05-10T12:44:56;2.03;;;0.70;;
26656;SDS011;14279;50.010;8.260;2023-05-10T12:47:22;2.00;;;1.43;;
26656;SDS011;14279;50.010;8.260;2023-05-10T12:49:47;3.37;;;0.80;;
26656;SDS011;14279;50.010;8.260;2023-05-10T12:52:12;1.53;;;0.93;;
26656;SDS011;14279;50.010;8.260;2023-05-10T12:54:37;2.83;;;0.93;;
26656;SDS011;14279;50.010;8.260;2023-05-10T12:57:03;2.23;;;1.13;;
26656;SDS011;14279;50.010;8.260;2023-05-10T12:59:28;2.90;;;0.87;;
26656;SDS011;14279;50.010;8.260;2023-05-10T13:01:53;4.20;;;0.80;;
26656;SDS011;14279;50.010;8.260;2023-05-10T13:04:18;3.23;;;0.90;;
26656;SDS011;14279;50.010;8.260;2023-05-10T13:06:44;1.60;;;0.80;;
26656;SDS011;14279;50.010;8.260;2023-05-10T13:09:09;1.67;;;0.70;;
26656;SDS011;14279;50.010;8.260;2023-05-10T13:11:34;0.70;;;0.70;;
26656;SDS011;14279;50.010;8.260;2023-05-10T13:14:00;1.33;;;0.73;;
26656;SDS011;14279;50.010;8.260;2023-05-10T13:16:25;1.30;;;0.70;;
26656;SDS011;14279;50.010;8.260;2023-05-10T13:18:50;2.40;;;0.70;;
26656;SDS011;14279;50.010;8.260;2023-05-10T13:21:15;2.77;;;0.77;;
26656;SDS011;14279;50.010;8.260;2023-05-10T13:23:41;0.77;;;0.60;;
26656;SDS011;14279;50.010;8.260;2023-05-10T13:26:06;3.50;;;0.70;;
26656;SDS011;14279;50.010;8.260;2023-05-10T13:28:31;1.00;;;0.80;;
26656;SDS011;14279;50.010;8.260;2023-05-10T13:30:57;1.00;;;0.60;;
26656;SDS011;14279;50.010;8.260;2023-05-10T13:33:22;5.33;;;0.90;;
26656;SDS011;14279;50.010;8.260;2023-05-10T13:35:48;0.87;;;0.70;;
26656;SDS011;14279;50.010;8.260;2023-05-10T13:38:15;1.33;;;0.70;;
26656;SDS011;14279;50.010;8.260;2023-05-10T13:40:40;1.30;;;0.97;;
26656;SDS011;14279;50.010;8.260;2023-05-10T13:43:06;2.10;;;0.80;;
26656;SDS011;14279;50.010;8.260;2023-05-10T13:45:31;2.33;;;0.63;;
26656;SDS011;14279;50.010;8.260;2023-05-10T13:47:56;0.93;;;0.77;;
26656;SDS011;14279;50.010;8.260;2023-05-10T13:50:22;2.83;;;0.83;;
26656;SDS011;14279;50.010;8.260;2023-05-10T13:52:47;2.63;;;0.80;;
26656;SDS011;14279;50.010;8.260;2023-05-10T13:55:12;1.00;;;0.90;;
26656;SDS011;14279;50.010;8.260;2023-05-10T13:57:38;0.80;;;0.60;;
26656;SDS011;14279;50.010;8.260;2023-05-10T14:00:03;1.17;;;0.67;;
26656;SDS011;14279;50.010;8.260;2023-05-10T14:02:29;2.00;;;0.80;;
26656;SDS011;14279;50.010;8.260;2023-05-10T14:04:54;0.83;;;0.60;;
26656;SDS011;14279;50.010;8.260;2023-05-10T14:07:20;3.33;;;0.93;;
26656;SDS011;14279;50.010;8.260;2023-05-10T14:09:45;3.80;;;0.80;;
26656;SDS011;14279;50.010;8.260;2023-05-10T14:12:10;2.20;;;0.80;;
26656;SDS011;14279;50.010;8.260;2023-05-10T14:14:36;1.63;;;0.70;;
26656;SDS011;14279;50.010;8.260;2023-05-10T14:17:01;3.33;;;1.10;;
26656;SDS011;14279;50.010;8.260;2023-05-10T14:19:27;1.37;;;0.93;;
26656;SDS011;14279;50.010;8.260;2023-05-10T14:21:52;1.73;;;0.80;;
26656;SDS011;14279;50.010;8.260;2023-05-10T14:24:18;0.90;;;0.77;;
26656;SDS011;14279;50.010;8.260;2023-05-10T14:26:43;1.30;;;0.70;;
26656;SDS011;14279;50.010;8.260;2023-05-10T14:29:08;5.53;;;1.00;;
26656;SDS011;14279;50.010;8.260;2023-05-10T14:31:33;1.90;;;0.80;;
26656;SDS011;14279;50.010;8.260;2023-05-10T14:33:59;4.40;;;0.80;;
26656;SDS011;14279;50.010;8.260;2023-05-10T14:36:24;2.60;;;1.00;;
26656;SDS011;14279;50.010;8.260;2023-05-10T14:38:49;1.33;;;0.83;;
26656;SDS011;14279;50.010;8.260;2023-05-10T14:41:15;1.00;;;0.90;;
26656;SDS011;14279;50.010;8.260;2023-05-10T14:43:42;0.70;;;0.70;;
26656;SDS011;14279;50.010;8.260;2023-05-10T14:46:07;2.93;;;1.30;;
26656;SDS011;14279;50.010;8.260;2023-05-10T14:48:33;1.47;;;0.90;;
26656;SDS011;14279;50.010;8.260;2023-05-10T14:50:58;5.40;;;1.50;;
26656;SDS011;14279;50.010;8.260;2023-05-10T14:53:24;4.10;;;1.20;;
26656;SDS011;14279;50.010;8.260;2023-05-10T14:55:49;1.67;;;0.90;;
26656;SDS011;14279;50.010;8.260;2023-05-10T14:58:14;7.30;;;0.93;;
26656;SDS011;14279;50.010;8.260;2023-05-10T15:00:40;2.90;;;1.10;;
26656;SDS011;14279;50.010;8.260;2023-05-10T15:03:05;2.47;;;1.30;;
26656;SDS011;14279;50.010;8.260;2023-05-10T15:05:30;2.40;;;1.10;;
26656;SDS011;14279;50.010;8.260;2023-05-10T15:07:55;2.87;;;1.10;;
26656;SDS011;14279;50.010;8.260;2023-05-10T15:10:21;4.10;;;0.90;;